Aeroporto :
LOGIN :

Iscrizione | Disclaimer

   EN    FR    IT 

 










Sommario :    VFR   VFR Marginale   IFR   IFR Intensivo   IFR Molto Intensivo
Visibilità : 
Base nubi : 
>= 8 km
>= 3000ft
5 / 8 km
1000 / 3000 ft
1500m / 5 km
500 / 1000 ft
800 / 1500m
200 / 500 ft
< 800m
< 200 ft
Simboli :   Temporali  Nebbia  Neve Forte  Precipitazioni Forti  Vento > 20 kt
SIGMETs :   Varie  Temporali  Ghiacco  Turbolenza  Onda orograficha  Ceneri Vulcaniche







- Altitudine del aeroporto : 915 ft
- Codice IATA : LUG


LSZA - Lugano

ULTIMO METAR :
  • 201550Z 18006KT 150V210 9999 FEW080 23/04 Q1024 NOSIG

METARs OBSOLETI :
  • 201520Z 19005KT 140V210 9999 FEW080 23/05 Q1024 NOSIG
  • 201450Z 19006KT 9999 FEW080 23/04 Q1024 NOSIG
  • 201420Z 20005KT 150V210 9999 FEW080 23/04 Q1025 NOSIG
  • 201350Z 19006KT 150V210 9999 FEW080 23/03 Q1025 NOSIG
  • 201320Z 18005KT 130V220 9999 FEW080 23/04 Q1025 NOSIG

TAF TAF LSZA
Valido dal 20 a 15 ore il 21 a 00 ore UTC


201425Z 2015/2024 20007KT 9999 FEW080
BECMG 2019/2021 CAVOK
ATIS : +41 22 417 40 88
Nessun NOTAM noto per questo aeroporto.



MetMap, La meteo Aeronautica in un colpo d'occhio ! - Copyright ORBIFLY Dicembre 2007 - Disclaimer

ORBIFLY MET'MAP TEAM :

Programmazione e sviluppo : Alexandra Zaïnal
Concezione e sviluppo : Baudouin d'Aumeries
Co-Programmazione e sviluppo : Marc-Olivier Méhu
Supporto tecnico e logistico : Manuel Goepfert
Aiuto per la traduzione : Arnaldo La Scala

Contatto : metmap@orbifly.com




FONTI E CREDITI :

   NOAA